Início
Estação Aeroclube
Estação São Gotardo
Temperatura
Umidade
Pressão Atmosférica
Vento
Precipitação
Configuração do gráfico
Período
v
     
 
v
   
Aplicar
Linhas e valores
etiquetasséries
The Temperatura média no período chart showing Mínima series, Máxima series, Média series, Sensação térmica series.
   
Hora
Temperatura média
Temperatura máxima
Temperatura mínima
Sensação térmica
Data: 28/01/2021
 12:00:0020,3520,4320,1821,07
 11:00:0020,320,520,0221,39
 10:00:0020,2820,6220,0421,42
 09:00:0020,5320,7520,2421,71
 08:00:0020,2220,6319,8721,3
 07:00:0019,9520,0419,8421,35
 06:00:0019,9220,0319,8321,25
 05:00:0019,9320,0219,8321,29
 04:00:0019,9820,1219,7621,17
 03:00:0020,0720,1919,9621,1
 02:00:0020,1620,3120,0421,03
 01:00:0020,2620,3920,1921,14
 00:00:0020,2520,3920,1521,34
Data: 27/01/2021
 23:00:0020,3120,4920,1121,65
 22:00:0020,2120,420,1121,59
 21:00:0020,2920,4520,1521,52
 20:00:0020,4621,1620,3320,98
 19:00:0021,8422,320,722,84
 18:00:0022,3922,6122,2523,34
 17:00:0022,2922,6122,123,04
 16:00:0022,0422,5121,3122,59
 15:00:0022,5523,3321,3123,35
 14:00:0022,422,921,623,02
 13:00:0023,3826,8821,624,8
 12:00:0026,2226,9925,4527,78
 11:00:002525,7724,0426,29
 10:00:0023,5224,1622,9424,61
 09:00:0022,8123,0122,3323,79
 08:00:0022,3122,4122,1123,22
 07:00:0022,2322,4121,622,83
 06:00:0021,5621,821,422,19
 05:00:0021,5621,821,522,07
 04:00:0021,7521,921,5522,26
 03:00:0021,5821,6221,522,17
 02:00:0021,5821,6721,422,13
 01:00:0021,3621,5221,3121,91
Data: 26/01/2021 (Continua na próxima página)
 23:00:0021,1121,3120,8321,71
 22:00:0020,7420,9120,5221,38
 21:00:0020,5220,6220,4221,14
 20:00:0020,7420,8920,4121,44
 19:00:0020,2421,2220,0320,97
 18:00:0022,3622,8720,3323,62
 17:00:0022,9323,3522,7424,28
 16:00:0023,5423,8423,0725,01
 15:00:0022,8623,5722,124,09
 14:00:0022,0622,2821,7523,2
 13:00:0021,7521,921,422,56
Página 1 de 4 (188 itens)
Anterior
[1]
2
3
4
Próxima